sensor_id;sensor_type;location;lat;lon;timestamp;P1;durP1;ratioP1;P2;durP2;ratioP2
15516;SDS011;7860;52.030;5.572;2022-07-23T00:03:04;9.88;;;4.36;;
15516;SDS011;7860;52.030;5.572;2022-07-23T00:03:09;7.37;;;3.88;;
15516;SDS011;7860;52.030;5.572;2022-07-23T00:03:14;7.85;;;4.12;;
15516;SDS011;7860;52.030;5.572;2022-07-23T00:03:14;8.34;;;4.11;;
15516;SDS011;7860;52.030;5.572;2022-07-23T00:04:04;10.29;;;4.20;;
15516;SDS011;7860;52.030;5.572;2022-07-23T00:05:05;8.72;;;4.26;;
15516;SDS011;7860;52.030;5.572;2022-07-23T00:06:05;9.00;;;4.24;;
15516;SDS011;7860;52.030;5.572;2022-07-23T00:07:04;7.61;;;4.24;;
15516;SDS011;7860;52.030;5.572;2022-07-23T00:08:05;8.29;;;4.48;;
15516;SDS011;7860;52.030;5.572;2022-07-23T00:09:05;8.57;;;4.47;;
15516;SDS011;7860;52.030;5.572;2022-07-23T00:10:05;9.11;;;4.33;;
15516;SDS011;7860;52.030;5.572;2022-07-23T00:11:05;7.94;;;4.18;;
15516;SDS011;7860;52.030;5.572;2022-07-23T00:12:05;8.46;;;4.19;;
15516;SDS011;7860;52.030;5.572;2022-07-23T00:13:05;9.01;;;4.53;;
15516;SDS011;7860;52.030;5.572;2022-07-23T00:14:05;8.13;;;3.90;;
15516;SDS011;7860;52.030;5.572;2022-07-23T00:15:05;8.16;;;4.26;;
15516;SDS011;7860;52.030;5.572;2022-07-23T00:16:05;9.10;;;4.60;;
15516;SDS011;7860;52.030;5.572;2022-07-23T00:17:05;8.36;;;4.43;;
15516;SDS011;7860;52.030;5.572;2022-07-23T00:18:05;8.14;;;4.52;;
15516;SDS011;7860;52.030;5.572;2022-07-23T00:19:05;9.45;;;4.59;;
15516;SDS011;7860;52.030;5.572;2022-07-23T00:20:06;7.99;;;4.07;;
15516;SDS011;7860;52.030;5.572;2022-07-23T00:21:05;8.66;;;4.49;;
15516;SDS011;7860;52.030;5.572;2022-07-23T00:22:05;10.66;;;4.96;;
15516;SDS011;7860;52.030;5.572;2022-07-23T00:23:05;8.22;;;4.75;;
15516;SDS011;7860;52.030;5.572;2022-07-23T00:24:05;8.68;;;4.52;;
15516;SDS011;7860;52.030;5.572;2022-07-23T00:25:05;7.83;;;4.32;;
15516;SDS011;7860;52.030;5.572;2022-07-23T00:26:05;7.48;;;4.27;;
15516;SDS011;7860;52.030;5.572;2022-07-23T00:27:06;8.00;;;4.43;;
15516;SDS011;7860;52.030;5.572;2022-07-23T00:28:05;10.51;;;4.71;;
15516;SDS011;7860;52.030;5.572;2022-07-23T00:29:05;9.26;;;5.15;;
15516;SDS011;7860;52.030;5.572;2022-07-23T00:30:06;9.62;;;4.73;;
15516;SDS011;7860;52.030;5.572;2022-07-23T00:31:06;10.47;;;5.11;;
15516;SDS011;7860;52.030;5.572;2022-07-23T00:32:06;8.61;;;5.05;;
15516;SDS011;7860;52.030;5.572;2022-07-23T00:33:06;9.15;;;4.89;;
15516;SDS011;7860;52.030;5.572;2022-07-23T00:34:06;9.31;;;4.43;;
15516;SDS011;7860;52.030;5.572;2022-07-23T00:35:06;9.44;;;4.62;;
15516;SDS011;7860;52.030;5.572;2022-07-23T00:36:06;8.60;;;4.23;;
15516;SDS011;7860;52.030;5.572;2022-07-23T00:37:06;12.32;;;5.07;;
15516;SDS011;7860;52.030;5.572;2022-07-23T00:38:06;9.36;;;4.57;;
15516;SDS011;7860;52.030;5.572;2022-07-23T00:39:06;8.16;;;4.71;;
15516;SDS011;7860;52.030;5.572;2022-07-23T00:40:06;10.14;;;4.59;;
15516;SDS011;7860;52.030;5.572;2022-07-23T00:41:06;9.61;;;4.74;;
15516;SDS011;7860;52.030;5.572;2022-07-23T00:42:06;8.02;;;4.52;;
15516;SDS011;7860;52.030;5.572;2022-07-23T00:43:06;9.26;;;4.42;;
15516;SDS011;7860;52.030;5.572;2022-07-23T00:44:14;9.65;;;4.24;;
15516;SDS011;7860;52.030;5.572;2022-07-23T00:45:07;8.97;;;4.88;;
15516;SDS011;7860;52.030;5.572;2022-07-23T00:46:07;8.65;;;4.76;;
15516;SDS011;7860;52.030;5.572;2022-07-23T00:47:07;9.39;;;5.02;;
15516;SDS011;7860;52.030;5.572;2022-07-23T00:48:07;9.36;;;4.96;;
15516;SDS011;7860;52.030;5.572;2022-07-23T00:49:07;7.98;;;4.55;;
15516;SDS011;7860;52.030;5.572;2022-07-23T00:50:08;8.76;;;4.67;;
15516;SDS011;7860;52.030;5.572;2022-07-23T00:51:08;9.12;;;4.59;;
15516;SDS011;7860;52.030;5.572;2022-07-23T00:52:08;8.79;;;4.75;;
15516;SDS011;7860;52.030;5.572;2022-07-23T00:53:08;8.46;;;4.48;;
15516;SDS011;7860;52.030;5.572;2022-07-23T00:54:08;10.59;;;4.81;;
15516;SDS011;7860;52.030;5.572;2022-07-23T00:55:08;10.90;;;4.57;;
15516;SDS011;7860;52.030;5.572;2022-07-23T00:56:08;9.14;;;4.76;;
15516;SDS011;7860;52.030;5.572;2022-07-23T00:57:08;9.15;;;4.85;;
15516;SDS011;7860;52.030;5.572;2022-07-23T00:58:08;8.70;;;5.02;;
15516;SDS011;7860;52.030;5.572;2022-07-23T00:59:08;8.99;;;4.60;;
15516;SDS011;7860;52.030;5.572;2022-07-23T01:00:09;9.43;;;4.62;;
15516;SDS011;7860;52.030;5.572;2022-07-23T01:01:08;10.07;;;4.94;;
15516;SDS011;7860;52.030;5.572;2022-07-23T01:02:08;11.76;;;5.19;;
15516;SDS011;7860;52.030;5.572;2022-07-23T01:03:08;9.30;;;4.80;;
15516;SDS011;7860;52.030;5.572;2022-07-23T01:04:08;9.04;;;4.93;;
15516;SDS011;7860;52.030;5.572;2022-07-23T01:05:08;10.16;;;5.21;;
15516;SDS011;7860;52.030;5.572;2022-07-23T01:06:08;10.11;;;5.15;;
15516;SDS011;7860;52.030;5.572;2022-07-23T01:07:08;10.65;;;5.16;;
15516;SDS011;7860;52.030;5.572;2022-07-23T01:08:08;8.96;;;5.22;;
15516;SDS011;7860;52.030;5.572;2022-07-23T01:09:08;9.53;;;5.01;;
15516;SDS011;7860;52.030;5.572;2022-07-23T01:10:08;10.65;;;5.17;;
15516;SDS011;7860;52.030;5.572;2022-07-23T01:11:08;9.24;;;4.69;;
15516;SDS011;7860;52.030;5.572;2022-07-23T01:12:08;11.63;;;5.36;;
15516;SDS011;7860;52.030;5.572;2022-07-23T01:13:09;8.55;;;4.41;;
15516;SDS011;7860;52.030;5.572;2022-07-23T01:14:10;9.34;;;4.53;;
15516;SDS011;7860;52.030;5.572;2022-07-23T01:15:09;10.40;;;5.11;;
15516;SDS011;7860;52.030;5.572;2022-07-23T01:16:09;8.34;;;5.14;;
15516;SDS011;7860;52.030;5.572;2022-07-23T01:17:09;8.12;;;4.71;;
15516;SDS011;7860;52.030;5.572;2022-07-23T01:18:09;11.25;;;5.42;;
15516;SDS011;7860;52.030;5.572;2022-07-23T01:19:09;10.05;;;5.14;;
15516;SDS011;7860;52.030;5.572;2022-07-23T01:20:09;10.03;;;5.24;;
15516;SDS011;7860;52.030;5.572;2022-07-23T01:21:10;9.46;;;5.02;;
15516;SDS011;7860;52.030;5.572;2022-07-23T01:22:10;9.68;;;4.92;;
15516;SDS011;7860;52.030;5.572;2022-07-23T01:23:10;9.54;;;4.98;;
15516;SDS011;7860;52.030;5.572;2022-07-23T01:24:10;10.04;;;5.17;;
15516;SDS011;7860;52.030;5.572;2022-07-23T01:25:10;11.14;;;5.14;;
15516;SDS011;7860;52.030;5.572;2022-07-23T01:26:10;9.25;;;5.03;;
15516;SDS011;7860;52.030;5.572;2022-07-23T01:27:10;11.16;;;5.00;;
15516;SDS011;7860;52.030;5.572;2022-07-23T01:28:10;8.96;;;5.00;;
15516;SDS011;7860;52.030;5.572;2022-07-23T01:29:10;9.41;;;5.15;;
15516;SDS011;7860;52.030;5.572;2022-07-23T01:30:11;10.85;;;5.30;;
15516;SDS011;7860;52.030;5.572;2022-07-23T01:31:10;9.76;;;4.80;;
15516;SDS011;7860;52.030;5.572;2022-07-23T01:32:10;9.20;;;4.99;;
15516;SDS011;7860;52.030;5.572;2022-07-23T01:33:10;9.47;;;4.87;;
15516;SDS011;7860;52.030;5.572;2022-07-23T01:34:10;9.56;;;4.86;;
15516;SDS011;7860;52.030;5.572;2022-07-23T01:35:10;11.08;;;5.35;;
15516;SDS011;7860;52.030;5.572;2022-07-23T01:36:11;11.87;;;5.00;;
15516;SDS011;7860;52.030;5.572;2022-07-23T01:37:11;9.66;;;4.89;;
15516;SDS011;7860;52.030;5.572;2022-07-23T01:38:11;9.28;;;5.05;;
15516;SDS011;7860;52.030;5.572;2022-07-23T01:39:11;8.69;;;4.89;;
15516;SDS011;7860;52.030;5.572;2022-07-23T01:40:11;10.52;;;5.18;;
15516;SDS011;7860;52.030;5.572;2022-07-23T01:41:11;10.26;;;4.95;;
15516;SDS011;7860;52.030;5.572;2022-07-23T01:42:11;11.33;;;5.38;;
15516;SDS011;7860;52.030;5.572;2022-07-23T01:43:11;11.19;;;5.56;;
15516;SDS011;7860;52.030;5.572;2022-07-23T01:44:11;10.83;;;5.49;;
15516;SDS011;7860;52.030;5.572;2022-07-23T01:45:11;10.31;;;4.93;;
15516;SDS011;7860;52.030;5.572;2022-07-23T01:46:11;9.98;;;5.33;;
15516;SDS011;7860;52.030;5.572;2022-07-23T01:47:11;11.14;;;5.59;;
15516;SDS011;7860;52.030;5.572;2022-07-23T01:48:12;11.80;;;5.33;;
15516;SDS011;7860;52.030;5.572;2022-07-23T01:49:12;11.46;;;5.41;;
15516;SDS011;7860;52.030;5.572;2022-07-23T01:50:12;8.51;;;4.78;;
15516;SDS011;7860;52.030;5.572;2022-07-23T01:51:33;10.36;;;5.22;;
15516;SDS011;7860;52.030;5.572;2022-07-23T01:52:33;9.44;;;5.01;;
15516;SDS011;7860;52.030;5.572;2022-07-23T01:53:33;10.19;;;5.24;;
15516;SDS011;7860;52.030;5.572;2022-07-23T01:54:33;9.90;;;4.93;;
15516;SDS011;7860;52.030;5.572;2022-07-23T01:55:33;10.34;;;5.01;;
15516;SDS011;7860;52.030;5.572;2022-07-23T01:56:33;8.77;;;4.85;;
15516;SDS011;7860;52.030;5.572;2022-07-23T01:57:33;8.58;;;4.49;;
15516;SDS011;7860;52.030;5.572;2022-07-23T01:58:33;9.73;;;5.13;;
15516;SDS011;7860;52.030;5.572;2022-07-23T01:59:33;8.80;;;5.02;;
15516;SDS011;7860;52.030;5.572;2022-07-23T02:00:34;9.66;;;5.07;;
15516;SDS011;7860;52.030;5.572;2022-07-23T02:01:34;9.96;;;5.55;;
15516;SDS011;7860;52.030;5.572;2022-07-23T02:02:34;8.88;;;5.01;;
15516;SDS011;7860;52.030;5.572;2022-07-23T02:03:35;9.59;;;5.15;;
15516;SDS011;7860;52.030;5.572;2022-07-23T02:04:35;10.69;;;5.05;;
15516;SDS011;7860;52.030;5.572;2022-07-23T02:05:35;9.05;;;5.07;;
15516;SDS011;7860;52.030;5.572;2022-07-23T02:06:35;9.65;;;5.15;;
15516;SDS011;7860;52.030;5.572;2022-07-23T02:07:35;9.03;;;4.87;;
15516;SDS011;7860;52.030;5.572;2022-07-23T02:08:35;10.14;;;5.31;;
15516;SDS011;7860;52.030;5.572;2022-07-23T02:09:35;8.94;;;5.11;;
15516;SDS011;7860;52.030;5.572;2022-07-23T02:10:35;9.81;;;5.01;;
15516;SDS011;7860;52.030;5.572;2022-07-23T02:11:35;8.88;;;5.09;;
15516;SDS011;7860;52.030;5.572;2022-07-23T02:12:36;10.03;;;5.31;;
15516;SDS011;7860;52.030;5.572;2022-07-23T02:13:36;9.88;;;4.88;;
15516;SDS011;7860;52.030;5.572;2022-07-23T02:14:36;8.23;;;4.70;;
15516;SDS011;7860;52.030;5.572;2022-07-23T02:15:37;10.43;;;5.14;;
15516;SDS011;7860;52.030;5.572;2022-07-23T02:16:37;8.87;;;4.88;;
15516;SDS011;7860;52.030;5.572;2022-07-23T02:17:37;14.75;;;5.15;;
15516;SDS011;7860;52.030;5.572;2022-07-23T02:18:37;9.70;;;5.05;;
15516;SDS011;7860;52.030;5.572;2022-07-23T02:19:37;9.48;;;5.31;;
15516;SDS011;7860;52.030;5.572;2022-07-23T02:20:37;9.64;;;5.12;;
15516;SDS011;7860;52.030;5.572;2022-07-23T02:21:37;9.55;;;5.21;;
15516;SDS011;7860;52.030;5.572;2022-07-23T02:22:37;10.53;;;5.24;;
15516;SDS011;7860;52.030;5.572;2022-07-23T02:23:37;11.39;;;4.92;;
15516;SDS011;7860;52.030;5.572;2022-07-23T02:24:37;9.44;;;4.75;;
15516;SDS011;7860;52.030;5.572;2022-07-23T02:25:37;11.78;;;5.37;;
15516;SDS011;7860;52.030;5.572;2022-07-23T02:26:37;9.65;;;5.25;;
15516;SDS011;7860;52.030;5.572;2022-07-23T02:27:37;11.13;;;5.14;;
15516;SDS011;7860;52.030;5.572;2022-07-23T02:28:37;9.84;;;5.13;;
15516;SDS011;7860;52.030;5.572;2022-07-23T02:29:37;11.19;;;5.30;;
15516;SDS011;7860;52.030;5.572;2022-07-23T02:30:37;9.22;;;4.79;;
15516;SDS011;7860;52.030;5.572;2022-07-23T02:31:38;7.79;;;4.29;;
15516;SDS011;7860;52.030;5.572;2022-07-23T02:32:38;9.86;;;4.77;;
15516;SDS011;7860;52.030;5.572;2022-07-23T02:33:39;8.27;;;4.40;;
15516;SDS011;7860;52.030;5.572;2022-07-23T02:34:39;9.18;;;4.56;;
15516;SDS011;7860;52.030;5.572;2022-07-23T02:35:39;8.12;;;4.61;;
15516;SDS011;7860;52.030;5.572;2022-07-23T02:36:39;11.06;;;4.99;;
15516;SDS011;7860;52.030;5.572;2022-07-23T02:37:39;9.66;;;4.96;;
15516;SDS011;7860;52.030;5.572;2022-07-23T02:38:40;9.43;;;4.88;;
15516;SDS011;7860;52.030;5.572;2022-07-23T02:39:40;10.78;;;5.28;;
15516;SDS011;7860;52.030;5.572;2022-07-23T02:40:40;10.34;;;5.24;;
15516;SDS011;7860;52.030;5.572;2022-07-23T02:41:40;10.73;;;5.10;;
15516;SDS011;7860;52.030;5.572;2022-07-23T02:42:40;9.32;;;5.17;;
15516;SDS011;7860;52.030;5.572;2022-07-23T02:43:40;11.61;;;5.09;;
15516;SDS011;7860;52.030;5.572;2022-07-23T02:44:40;9.16;;;4.66;;
15516;SDS011;7860;52.030;5.572;2022-07-23T02:45:40;8.57;;;4.54;;
15516;SDS011;7860;52.030;5.572;2022-07-23T02:46:40;8.60;;;4.73;;
15516;SDS011;7860;52.030;5.572;2022-07-23T02:47:40;11.35;;;4.50;;
15516;SDS011;7860;52.030;5.572;2022-07-23T02:48:40;11.87;;;5.21;;
15516;SDS011;7860;52.030;5.572;2022-07-23T02:49:40;10.23;;;4.94;;
15516;SDS011;7860;52.030;5.572;2022-07-23T02:50:40;9.88;;;5.19;;
15516;SDS011;7860;52.030;5.572;2022-07-23T02:51:40;8.27;;;4.61;;
15516;SDS011;7860;52.030;5.572;2022-07-23T02:52:40;9.87;;;4.94;;
15516;SDS011;7860;52.030;5.572;2022-07-23T02:53:41;8.30;;;4.68;;
15516;SDS011;7860;52.030;5.572;2022-07-23T02:54:41;9.14;;;4.95;;
15516;SDS011;7860;52.030;5.572;2022-07-23T02:55:41;8.99;;;4.82;;
15516;SDS011;7860;52.030;5.572;2022-07-23T02:56:41;8.80;;;4.93;;
15516;SDS011;7860;52.030;5.572;2022-07-23T02:57:41;9.70;;;5.14;;
15516;SDS011;7860;52.030;5.572;2022-07-23T02:58:41;9.86;;;5.09;;
15516;SDS011;7860;52.030;5.572;2022-07-23T02:59:41;9.55;;;4.90;;
15516;SDS011;7860;52.030;5.572;2022-07-23T03:00:41;10.36;;;5.24;;
15516;SDS011;7860;52.030;5.572;2022-07-23T03:01:41;9.06;;;4.72;;
15516;SDS011;7860;52.030;5.572;2022-07-23T03:02:42;8.94;;;5.10;;
15516;SDS011;7860;52.030;5.572;2022-07-23T03:03:42;9.36;;;4.49;;
15516;SDS011;7860;52.030;5.572;2022-07-23T03:04:42;9.12;;;5.20;;
15516;SDS011;7860;52.030;5.572;2022-07-23T03:05:42;8.37;;;4.85;;
15516;SDS011;7860;52.030;5.572;2022-07-23T03:06:43;7.96;;;4.54;;
15516;SDS011;7860;52.030;5.572;2022-07-23T03:07:43;10.95;;;4.90;;
15516;SDS011;7860;52.030;5.572;2022-07-23T03:08:43;9.20;;;4.81;;
15516;SDS011;7860;52.030;5.572;2022-07-23T03:09:43;11.26;;;5.19;;
15516;SDS011;7860;52.030;5.572;2022-07-23T03:10:43;11.24;;;5.06;;
15516;SDS011;7860;52.030;5.572;2022-07-23T03:11:43;8.98;;;5.02;;
15516;SDS011;7860;52.030;5.572;2022-07-23T03:12:43;8.69;;;4.94;;
15516;SDS011;7860;52.030;5.572;2022-07-23T03:13:44;9.90;;;4.54;;
15516;SDS011;7860;52.030;5.572;2022-07-23T03:14:44;10.36;;;4.86;;
15516;SDS011;7860;52.030;5.572;2022-07-23T03:15:44;9.19;;;4.91;;
15516;SDS011;7860;52.030;5.572;2022-07-23T03:16:44;10.22;;;5.04;;
15516;SDS011;7860;52.030;5.572;2022-07-23T03:17:44;10.10;;;5.01;;
15516;SDS011;7860;52.030;5.572;2022-07-23T03:18:45;10.45;;;4.97;;
15516;SDS011;7860;52.030;5.572;2022-07-23T03:19:45;9.14;;;4.96;;
15516;SDS011;7860;52.030;5.572;2022-07-23T03:20:45;10.45;;;4.91;;
15516;SDS011;7860;52.030;5.572;2022-07-23T03:21:45;10.75;;;4.96;;
15516;SDS011;7860;52.030;5.572;2022-07-23T03:22:45;9.03;;;5.15;;
15516;SDS011;7860;52.030;5.572;2022-07-23T03:23:45;9.91;;;5.28;;
15516;SDS011;7860;52.030;5.572;2022-07-23T03:24:46;12.40;;;5.02;;
15516;SDS011;7860;52.030;5.572;2022-07-23T03:25:46;9.60;;;4.85;;
15516;SDS011;7860;52.030;5.572;2022-07-23T03:26:46;9.92;;;4.90;;
15516;SDS011;7860;52.030;5.572;2022-07-23T03:27:47;8.81;;;4.38;;
15516;SDS011;7860;52.030;5.572;2022-07-23T03:28:47;10.24;;;5.07;;
15516;SDS011;7860;52.030;5.572;2022-07-23T03:29:48;10.56;;;4.78;;
15516;SDS011;7860;52.030;5.572;2022-07-23T03:30:47;9.84;;;4.75;;
15516;SDS011;7860;52.030;5.572;2022-07-23T03:31:47;10.81;;;4.90;;
15516;SDS011;7860;52.030;5.572;2022-07-23T03:32:47;9.23;;;4.65;;
15516;SDS011;7860;52.030;5.572;2022-07-23T03:33:47;8.82;;;4.92;;
15516;SDS011;7860;52.030;5.572;2022-07-23T03:34:48;10.81;;;5.28;;
15516;SDS011;7860;52.030;5.572;2022-07-23T03:35:48;11.14;;;4.71;;
15516;SDS011;7860;52.030;5.572;2022-07-23T03:36:47;9.22;;;4.77;;
15516;SDS011;7860;52.030;5.572;2022-07-23T03:37:47;8.94;;;4.60;;
15516;SDS011;7860;52.030;5.572;2022-07-23T03:38:47;8.34;;;4.47;;
15516;SDS011;7860;52.030;5.572;2022-07-23T03:39:48;9.89;;;4.46;;
15516;SDS011;7860;52.030;5.572;2022-07-23T03:40:48;10.17;;;4.98;;
15516;SDS011;7860;52.030;5.572;2022-07-23T03:41:48;8.58;;;4.75;;
15516;SDS011;7860;52.030;5.572;2022-07-23T03:42:48;9.63;;;4.52;;
15516;SDS011;7860;52.030;5.572;2022-07-23T03:43:48;9.96;;;4.65;;
15516;SDS011;7860;52.030;5.572;2022-07-23T03:44:49;9.10;;;4.59;;
15516;SDS011;7860;52.030;5.572;2022-07-23T03:45:49;8.69;;;4.99;;
15516;SDS011;7860;52.030;5.572;2022-07-23T03:46:49;10.67;;;4.76;;
15516;SDS011;7860;52.030;5.572;2022-07-23T03:47:49;11.72;;;5.08;;
15516;SDS011;7860;52.030;5.572;2022-07-23T03:48:50;10.59;;;5.43;;
15516;SDS011;7860;52.030;5.572;2022-07-23T03:49:50;10.18;;;5.14;;
15516;SDS011;7860;52.030;5.572;2022-07-23T03:50:50;10.48;;;5.32;;
15516;SDS011;7860;52.030;5.572;2022-07-23T03:51:50;11.57;;;5.32;;
15516;SDS011;7860;52.030;5.572;2022-07-23T03:52:50;9.63;;;5.08;;
15516;SDS011;7860;52.030;5.572;2022-07-23T03:53:51;9.59;;;5.21;;
15516;SDS011;7860;52.030;5.572;2022-07-23T03:54:51;9.42;;;5.16;;
15516;SDS011;7860;52.030;5.572;2022-07-23T03:55:51;11.43;;;5.51;;
15516;SDS011;7860;52.030;5.572;2022-07-23T03:56:51;10.37;;;5.25;;
15516;SDS011;7860;52.030;5.572;2022-07-23T03:57:51;11.26;;;5.62;;
15516;SDS011;7860;52.030;5.572;2022-07-23T03:58:51;10.82;;;5.71;;
15516;SDS011;7860;52.030;5.572;2022-07-23T03:59:52;10.50;;;5.51;;
15516;SDS011;7860;52.030;5.572;2022-07-23T04:00:52;11.13;;;5.64;;
15516;SDS011;7860;52.030;5.572;2022-07-23T04:01:52;12.83;;;5.75;;
15516;SDS011;7860;52.030;5.572;2022-07-23T04:02:52;10.90;;;5.70;;
15516;SDS011;7860;52.030;5.572;2022-07-23T04:03:52;12.12;;;5.57;;
15516;SDS011;7860;52.030;5.572;2022-07-23T04:04:52;10.97;;;5.61;;
15516;SDS011;7860;52.030;5.572;2022-07-23T04:05:52;8.93;;;5.24;;
15516;SDS011;7860;52.030;5.572;2022-07-23T04:06:52;10.56;;;5.56;;
15516;SDS011;7860;52.030;5.572;2022-07-23T04:07:52;10.02;;;5.35;;
15516;SDS011;7860;52.030;5.572;2022-07-23T04:08:53;11.25;;;5.46;;
15516;SDS011;7860;52.030;5.572;2022-07-23T04:09:52;10.94;;;5.24;;
15516;SDS011;7860;52.030;5.572;2022-07-23T04:10:53;12.89;;;5.83;;
15516;SDS011;7860;52.030;5.572;2022-07-23T04:11:53;9.31;;;4.89;;
15516;SDS011;7860;52.030;5.572;2022-07-23T04:12:53;9.93;;;5.24;;
15516;SDS011;7860;52.030;5.572;2022-07-23T04:13:54;10.30;;;5.39;;
15516;SDS011;7860;52.030;5.572;2022-07-23T04:14:54;11.73;;;5.55;;
15516;SDS011;7860;52.030;5.572;2022-07-23T04:15:54;8.69;;;5.07;;
15516;SDS011;7860;52.030;5.572;2022-07-23T04:16:54;11.08;;;5.65;;
15516;SDS011;7860;52.030;5.572;2022-07-23T04:17:54;9.64;;;5.24;;
15516;SDS011;7860;52.030;5.572;2022-07-23T04:18:54;9.81;;;5.23;;
15516;SDS011;7860;52.030;5.572;2022-07-23T04:19:54;9.25;;;4.91;;
15516;SDS011;7860;52.030;5.572;2022-07-23T04:20:54;9.32;;;4.51;;
15516;SDS011;7860;52.030;5.572;2022-07-23T04:21:54;9.24;;;4.93;;
15516;SDS011;7860;52.030;5.572;2022-07-23T04:22:54;8.60;;;4.72;;
15516;SDS011;7860;52.030;5.572;2022-07-23T04:23:54;8.49;;;4.68;;
15516;SDS011;7860;52.030;5.572;2022-07-23T04:24:54;10.00;;;5.32;;
15516;SDS011;7860;52.030;5.572;2022-07-23T04:25:54;8.45;;;4.57;;
15516;SDS011;7860;52.030;5.572;2022-07-23T04:26:54;10.95;;;5.31;;
15516;SDS011;7860;52.030;5.572;2022-07-23T04:27:54;11.01;;;5.44;;
15516;SDS011;7860;52.030;5.572;2022-07-23T04:28:54;8.91;;;4.97;;
15516;SDS011;7860;52.030;5.572;2022-07-23T04:29:54;11.16;;;5.43;;
15516;SDS011;7860;52.030;5.572;2022-07-23T04:30:55;8.72;;;4.60;;
15516;SDS011;7860;52.030;5.572;2022-07-23T04:31:54;9.15;;;4.50;;
15516;SDS011;7860;52.030;5.572;2022-07-23T04:32:54;8.84;;;5.03;;
15516;SDS011;7860;52.030;5.572;2022-07-23T04:33:55;8.69;;;4.49;;
15516;SDS011;7860;52.030;5.572;2022-07-23T04:34:55;8.46;;;4.77;;
15516;SDS011;7860;52.030;5.572;2022-07-23T04:35:55;8.31;;;4.48;;
15516;SDS011;7860;52.030;5.572;2022-07-23T04:36:55;8.74;;;4.44;;
15516;SDS011;7860;52.030;5.572;2022-07-23T04:37:55;10.03;;;4.71;;
15516;SDS011;7860;52.030;5.572;2022-07-23T04:38:56;9.93;;;5.32;;
15516;SDS011;7860;52.030;5.572;2022-07-23T04:39:56;8.11;;;4.65;;
15516;SDS011;7860;52.030;5.572;2022-07-23T04:40:56;9.77;;;4.86;;
15516;SDS011;7860;52.030;5.572;2022-07-23T04:41:56;9.68;;;4.96;;
15516;SDS011;7860;52.030;5.572;2022-07-23T04:42:57;8.28;;;4.57;;
15516;SDS011;7860;52.030;5.572;2022-07-23T04:43:57;9.36;;;4.63;;
15516;SDS011;7860;52.030;5.572;2022-07-23T04:44:57;11.04;;;4.73;;
15516;SDS011;7860;52.030;5.572;2022-07-23T04:45:57;8.63;;;4.85;;
15516;SDS011;7860;52.030;5.572;2022-07-23T04:46:57;10.63;;;4.72;;
15516;SDS011;7860;52.030;5.572;2022-07-23T04:47:57;8.43;;;4.75;;
15516;SDS011;7860;52.030;5.572;2022-07-23T04:48:57;9.76;;;4.82;;
15516;SDS011;7860;52.030;5.572;2022-07-23T04:49:57;9.21;;;4.84;;
15516;SDS011;7860;52.030;5.572;2022-07-23T04:50:57;10.63;;;4.91;;
15516;SDS011;7860;52.030;5.572;2022-07-23T04:51:58;9.39;;;4.47;;
15516;SDS011;7860;52.030;5.572;2022-07-23T04:52:58;9.14;;;4.61;;
15516;SDS011;7860;52.030;5.572;2022-07-23T04:53:58;9.37;;;4.99;;
15516;SDS011;7860;52.030;5.572;2022-07-23T04:54:58;10.45;;;5.24;;
15516;SDS011;7860;52.030;5.572;2022-07-23T04:55:58;9.25;;;5.01;;
15516;SDS011;7860;52.030;5.572;2022-07-23T04:56:58;12.11;;;4.68;;
15516;SDS011;7860;52.030;5.572;2022-07-23T04:57:58;9.57;;;4.70;;
15516;SDS011;7860;52.030;5.572;2022-07-23T04:58:58;10.25;;;5.00;;
15516;SDS011;7860;52.030;5.572;2022-07-23T04:59:58;9.06;;;4.74;;
15516;SDS011;7860;52.030;5.572;2022-07-23T05:00:58;7.84;;;4.58;;
15516;SDS011;7860;52.030;5.572;2022-07-23T05:01:58;8.91;;;4.59;;
15516;SDS011;7860;52.030;5.572;2022-07-23T05:02:58;9.20;;;4.58;;
15516;SDS011;7860;52.030;5.572;2022-07-23T05:03:58;9.55;;;4.64;;
15516;SDS011;7860;52.030;5.572;2022-07-23T05:04:59;9.57;;;4.59;;
15516;SDS011;7860;52.030;5.572;2022-07-23T05:05:58;10.09;;;4.80;;
15516;SDS011;7860;52.030;5.572;2022-07-23T05:06:59;8.92;;;4.62;;
15516;SDS011;7860;52.030;5.572;2022-07-23T05:07:59;9.20;;;4.89;;
15516;SDS011;7860;52.030;5.572;2022-07-23T05:08:59;10.65;;;4.94;;
15516;SDS011;7860;52.030;5.572;2022-07-23T05:09:59;9.25;;;4.82;;
15516;SDS011;7860;52.030;5.572;2022-07-23T05:10:59;9.88;;;4.36;;
15516;SDS011;7860;52.030;5.572;2022-07-23T05:11:59;8.54;;;4.43;;
15516;SDS011;7860;52.030;5.572;2022-07-23T05:12:59;11.39;;;4.71;;
15516;SDS011;7860;52.030;5.572;2022-07-23T05:13:59;11.40;;;5.01;;
15516;SDS011;7860;52.030;5.572;2022-07-23T05:14:59;8.44;;;4.46;;
15516;SDS011;7860;52.030;5.572;2022-07-23T05:16:00;9.05;;;4.43;;
15516;SDS011;7860;52.030;5.572;2022-07-23T05:17:00;7.60;;;3.87;;
15516;SDS011;7860;52.030;5.572;2022-07-23T05:18:00;8.89;;;4.56;;
15516;SDS011;7860;52.030;5.572;2022-07-23T05:19:00;8.52;;;4.39;;
15516;SDS011;7860;52.030;5.572;2022-07-23T05:20:00;9.53;;;4.51;;
15516;SDS011;7860;52.030;5.572;2022-07-23T05:21:00;10.39;;;4.49;;
15516;SDS011;7860;52.030;5.572;2022-07-23T05:22:00;8.10;;;4.15;;
15516;SDS011;7860;52.030;5.572;2022-07-23T05:23:00;8.92;;;4.49;;
15516;SDS011;7860;52.030;5.572;2022-07-23T05:24:00;10.88;;;5.15;;
15516;SDS011;7860;52.030;5.572;2022-07-23T05:25:00;9.47;;;4.45;;
15516;SDS011;7860;52.030;5.572;2022-07-23T05:26:00;7.55;;;4.36;;
15516;SDS011;7860;52.030;5.572;2022-07-23T05:27:00;9.07;;;4.71;;
15516;SDS011;7860;52.030;5.572;2022-07-23T05:28:00;9.09;;;4.85;;
15516;SDS011;7860;52.030;5.572;2022-07-23T05:29:01;8.84;;;4.35;;
15516;SDS011;7860;52.030;5.572;2022-07-23T05:30:01;8.46;;;4.36;;
15516;SDS011;7860;52.030;5.572;2022-07-23T05:31:01;9.18;;;4.39;;
15516;SDS011;7860;52.030;5.572;2022-07-23T05:32:01;8.26;;;4.14;;
15516;SDS011;7860;52.030;5.572;2022-07-23T05:33:02;10.51;;;4.65;;
15516;SDS011;7860;52.030;5.572;2022-07-23T05:34:02;8.90;;;4.37;;
15516;SDS011;7860;52.030;5.572;2022-07-23T05:35:02;8.79;;;4.57;;
15516;SDS011;7860;52.030;5.572;2022-07-23T05:36:02;8.61;;;4.75;;
15516;SDS011;7860;52.030;5.572;2022-07-23T05:37:02;8.27;;;4.42;;
15516;SDS011;7860;52.030;5.572;2022-07-23T05:38:02;9.20;;;4.79;;
15516;SDS011;7860;52.030;5.572;2022-07-23T05:39:02;9.39;;;4.60;;
15516;SDS011;7860;52.030;5.572;2022-07-23T05:40:02;7.77;;;4.30;;
15516;SDS011;7860;52.030;5.572;2022-07-23T05:41:02;9.40;;;4.83;;
15516;SDS011;7860;52.030;5.572;2022-07-23T05:42:02;7.44;;;4.39;;
15516;SDS011;7860;52.030;5.572;2022-07-23T05:43:02;9.82;;;4.46;;
15516;SDS011;7860;52.030;5.572;2022-07-23T05:44:02;7.74;;;4.23;;
15516;SDS011;7860;52.030;5.572;2022-07-23T05:45:03;8.10;;;4.58;;
15516;SDS011;7860;52.030;5.572;2022-07-23T05:46:02;11.61;;;4.47;;
15516;SDS011;7860;52.030;5.572;2022-07-23T05:47:02;9.30;;;4.70;;
15516;SDS011;7860;52.030;5.572;2022-07-23T05:48:03;8.06;;;4.17;;
15516;SDS011;7860;52.030;5.572;2022-07-23T05:49:02;7.96;;;4.20;;
15516;SDS011;7860;52.030;5.572;2022-07-23T05:50:03;7.90;;;4.28;;
15516;SDS011;7860;52.030;5.572;2022-07-23T05:51:02;10.81;;;4.62;;
15516;SDS011;7860;52.030;5.572;2022-07-23T05:52:03;11.10;;;4.90;;
15516;SDS011;7860;52.030;5.572;2022-07-23T05:53:03;11.62;;;4.42;;
15516;SDS011;7860;52.030;5.572;2022-07-23T05:54:03;8.03;;;4.12;;
15516;SDS011;7860;52.030;5.572;2022-07-23T05:55:03;9.55;;;4.52;;
15516;SDS011;7860;52.030;5.572;2022-07-23T05:56:03;10.66;;;4.33;;
15516;SDS011;7860;52.030;5.572;2022-07-23T05:57:03;8.03;;;4.49;;
15516;SDS011;7860;52.030;5.572;2022-07-23T05:58:03;8.96;;;4.64;;
15516;SDS011;7860;52.030;5.572;2022-07-23T05:59:03;7.44;;;4.06;;
15516;SDS011;7860;52.030;5.572;2022-07-23T06:00:05;10.86;;;4.45;;
15516;SDS011;7860;52.030;5.572;2022-07-23T06:01:03;8.45;;;4.72;;
15516;SDS011;7860;52.030;5.572;2022-07-23T06:02:03;9.00;;;4.34;;
15516;SDS011;7860;52.030;5.572;2022-07-23T06:03:03;9.37;;;4.34;;
15516;SDS011;7860;52.030;5.572;2022-07-23T06:04:03;8.21;;;4.13;;
15516;SDS011;7860;52.030;5.572;2022-07-23T06:05:03;7.58;;;4.41;;
15516;SDS011;7860;52.030;5.572;2022-07-23T06:06:03;6.17;;;3.37;;